createdAt,value
2023-01-12T00:02:28.271Z,23.90
2023-01-12T00:04:57.012Z,27.43
2023-01-12T00:07:25.644Z,28.10
2023-01-12T00:09:54.371Z,24.73
2023-01-12T00:12:23.009Z,23.23
2023-01-12T00:14:52.139Z,22.87
2023-01-12T00:17:20.845Z,21.87
2023-01-12T00:19:51.659Z,21.77
2023-01-12T00:22:20.754Z,19.20
2023-01-12T00:24:50.202Z,20.60
2023-01-12T00:27:20.807Z,20.53
2023-01-12T00:29:50.051Z,19.80
2023-01-12T00:32:20.621Z,20.90
2023-01-12T00:34:50.876Z,20.07
2023-01-12T00:37:20.958Z,18.37
2023-01-12T00:40:01.378Z,19.83
2023-01-12T00:42:48.060Z,18.13
2023-01-12T00:45:23.111Z,17.70
2023-01-12T00:47:52.081Z,16.73
2023-01-12T00:50:23.261Z,19.80
2023-01-12T00:52:51.969Z,17.63
2023-01-12T00:55:20.680Z,17.17
2023-01-12T00:57:49.512Z,19.30
2023-01-12T01:00:19.215Z,17.30
2023-01-12T01:02:48.311Z,16.27
2023-01-12T01:05:17.929Z,16.23
2023-01-12T01:07:48.359Z,18.47
2023-01-12T01:10:18.056Z,18.50
2023-01-12T01:12:47.272Z,18.97
2023-01-12T01:15:15.940Z,17.43
2023-01-12T01:17:44.664Z,18.33
2023-01-12T01:20:14.067Z,18.50
2023-01-12T01:22:42.740Z,19.50
2023-01-12T01:25:13.004Z,19.10
2023-01-12T01:27:41.724Z,21.27
2023-01-12T01:30:11.850Z,19.63
2023-01-12T01:32:40.581Z,21.50
2023-01-12T01:35:09.866Z,20.23
2023-01-12T01:37:38.644Z,18.97
2023-01-12T01:40:08.641Z,20.70
2023-01-12T01:42:39.384Z,19.87
2023-01-12T01:45:12.446Z,19.83
2023-01-12T01:47:46.120Z,19.00
2023-01-12T01:50:21.033Z,18.37
2023-01-12T01:52:52.642Z,18.90
2023-01-12T01:55:25.633Z,17.53
2023-01-12T01:57:58.371Z,17.13
2023-01-12T02:00:27.268Z,19.20
2023-01-12T02:02:57.051Z,18.17
2023-01-12T02:05:28.994Z,17.07
2023-01-12T02:08:03.296Z,16.93
2023-01-12T02:10:32.143Z,17.17
2023-01-12T02:13:19.674Z,16.83
2023-01-12T02:16:15.771Z,19.10
2023-01-12T02:18:50.786Z,19.77
2023-01-12T02:22:11.754Z,17.43
2023-01-12T02:25:13.380Z,16.93
2023-01-12T02:28:24.580Z,16.47
2023-01-12T02:31:25.328Z,18.47
2023-01-12T02:34:05.001Z,17.10
2023-01-12T02:36:42.739Z,17.07
2023-01-12T02:39:16.963Z,17.10
2023-01-12T02:42:12.551Z,16.77
2023-01-12T02:44:46.664Z,16.60
2023-01-12T02:47:21.831Z,18.60
2023-01-12T02:49:57.463Z,18.87
2023-01-12T02:52:30.273Z,19.40
2023-01-12T02:55:01.175Z,20.83
2023-01-12T02:57:31.818Z,21.40
2023-01-12T03:00:02.741Z,20.07
2023-01-12T03:02:33.749Z,19.50
2023-01-12T03:05:02.500Z,20.13
2023-01-12T03:07:38.838Z,19.57
2023-01-12T03:10:22.210Z,25.17
2023-01-12T03:12:52.727Z,22.50
2023-01-12T03:15:23.400Z,18.97
2023-01-12T03:17:59.496Z,18.17
2023-01-12T03:20:32.257Z,20.90
2023-01-12T03:23:05.023Z,18.47
2023-01-12T03:25:35.212Z,20.30
2023-01-12T03:28:06.440Z,19.70
2023-01-12T03:30:39.006Z,20.10
2023-01-12T03:33:10.294Z,23.17
2023-01-12T03:35:45.065Z,19.30
2023-01-12T03:38:19.810Z,21.90
2023-01-12T03:40:54.157Z,25.67
2023-01-12T03:43:28.424Z,22.73
2023-01-12T03:46:02.602Z,20.33
2023-01-12T03:48:38.001Z,20.83
2023-01-12T03:51:12.341Z,20.23
2023-01-12T03:53:43.584Z,18.67
2023-01-12T03:56:14.526Z,20.43
2023-01-12T03:58:43.742Z,20.00
2023-01-12T04:01:12.818Z,22.40
2023-01-12T04:03:42.897Z,21.43
2023-01-12T04:06:11.765Z,19.83
2023-01-12T04:08:40.439Z,18.93
2023-01-12T04:11:23.293Z,21.17
2023-01-12T04:13:52.032Z,20.47
2023-01-12T04:16:21.140Z,20.63
2023-01-12T04:18:51.237Z,21.70
2023-01-12T04:21:37.161Z,25.83
2023-01-12T04:24:06.171Z,23.93
2023-01-12T04:26:34.955Z,22.27
2023-01-12T04:29:03.699Z,20.70
2023-01-12T04:31:32.424Z,19.17
2023-01-12T04:34:02.579Z,20.30
2023-01-12T04:36:31.336Z,17.80
2023-01-12T04:38:59.992Z,15.93
2023-01-12T04:41:28.775Z,21.93
2023-01-12T04:43:57.442Z,19.17
2023-01-12T04:46:26.374Z,16.93
2023-01-12T04:48:55.113Z,17.47
2023-01-12T04:51:25.199Z,16.70
2023-01-12T04:53:53.998Z,17.73
2023-01-12T04:56:22.654Z,16.10
2023-01-12T04:58:56.229Z,15.60
2023-01-12T05:01:25.043Z,14.83
2023-01-12T05:03:56.308Z,15.80
2023-01-12T05:06:26.509Z,15.77
2023-01-12T05:09:12.761Z,13.97
2023-01-12T05:11:41.536Z,15.97
2023-01-12T05:14:10.201Z,14.13
2023-01-12T05:16:39.042Z,14.93
2023-01-12T05:19:07.694Z,14.47
2023-01-12T05:21:37.751Z,16.00
2023-01-12T05:24:06.815Z,15.47
2023-01-12T05:26:35.520Z,15.30
2023-01-12T05:29:04.251Z,14.70
2023-01-12T05:31:34.932Z,15.10
2023-01-12T05:34:03.631Z,14.50
2023-01-12T05:36:32.377Z,14.33
2023-01-12T05:39:02.451Z,18.23
2023-01-12T05:41:31.154Z,16.73
2023-01-12T05:43:58.885Z,15.33
2023-01-12T05:46:29.988Z,14.77
2023-01-12T05:49:00.064Z,14.30
2023-01-12T05:51:31.092Z,15.50
2023-01-12T05:53:59.912Z,13.73
2023-01-12T05:56:31.086Z,14.03
2023-01-12T05:59:01.916Z,13.80
2023-01-12T06:01:31.674Z,13.37
2023-01-12T06:04:02.563Z,14.87
2023-01-12T06:06:32.322Z,16.80
2023-01-12T06:09:01.887Z,13.93
2023-01-12T06:11:49.750Z,13.67
2023-01-12T06:14:18.671Z,14.33
2023-01-12T06:16:48.019Z,14.10
2023-01-12T06:19:16.679Z,15.33
2023-01-12T06:21:45.373Z,15.10
2023-01-12T06:24:17.050Z,15.10
2023-01-12T06:26:47.271Z,17.53
2023-01-12T06:29:15.978Z,16.87
2023-01-12T06:31:45.004Z,16.40
2023-01-12T06:34:13.941Z,19.33
2023-01-12T06:36:42.631Z,20.83
2023-01-12T06:39:12.880Z,19.70
2023-01-12T06:41:58.734Z,20.07
2023-01-12T06:44:28.760Z,19.23
2023-01-12T06:46:57.484Z,18.47
2023-01-12T06:49:26.280Z,17.53
2023-01-12T06:51:54.949Z,17.40
2023-01-12T06:54:23.674Z,17.77
2023-01-12T06:56:52.317Z,19.13
2023-01-12T06:59:20.912Z,18.27
2023-01-12T07:01:51.059Z,18.80
2023-01-12T07:04:19.746Z,17.43
2023-01-12T07:06:48.617Z,18.33
2023-01-12T07:09:17.338Z,18.07
2023-01-12T07:11:46.072Z,21.43
2023-01-12T07:14:14.706Z,18.80
2023-01-12T07:16:43.379Z,19.97
2023-01-12T07:19:13.855Z,20.97
2023-01-12T07:21:44.362Z,19.87
2023-01-12T07:24:13.218Z,18.57
2023-01-12T07:26:41.995Z,18.20
2023-01-12T07:29:11.808Z,19.43
2023-01-12T07:31:40.576Z,18.67
2023-01-12T07:34:09.225Z,17.30
2023-01-12T07:36:39.734Z,18.50
2023-01-12T07:39:08.792Z,18.97
2023-01-12T07:41:54.911Z,18.30
2023-01-12T07:44:24.294Z,18.30
2023-01-12T07:46:52.726Z,19.57
2023-01-12T07:49:21.138Z,18.30
2023-01-12T07:51:53.942Z,20.10
2023-01-12T07:54:22.432Z,19.97
2023-01-12T07:56:50.718Z,20.00
2023-01-12T07:59:19.104Z,20.10
2023-01-12T08:01:47.536Z,18.97
2023-01-12T08:04:15.989Z,18.10
2023-01-12T08:06:44.409Z,18.17
2023-01-12T08:09:14.198Z,19.40
2023-01-12T08:11:42.497Z,20.77
2023-01-12T08:14:14.201Z,20.90
2023-01-12T08:16:45.719Z,20.63
2023-01-12T08:19:19.167Z,20.33
2023-01-12T08:21:52.924Z,20.93
2023-01-12T08:24:26.944Z,21.00
2023-01-12T08:26:58.230Z,21.47
2023-01-12T08:29:32.588Z,20.07
2023-01-12T08:32:04.883Z,22.57
2023-01-12T08:34:33.809Z,20.07
2023-01-12T08:37:06.178Z,20.60
2023-01-12T08:39:36.352Z,20.70
2023-01-12T08:42:05.059Z,20.00
2023-01-12T08:44:35.077Z,19.23
2023-01-12T08:47:04.556Z,19.93
2023-01-12T08:49:35.310Z,19.73
2023-01-12T08:52:03.696Z,18.90
2023-01-12T08:54:32.137Z,17.77
2023-01-12T08:57:01.798Z,20.50
2023-01-12T08:59:30.080Z,19.33
2023-01-12T09:01:58.516Z,18.50
2023-01-12T09:04:26.899Z,19.10
2023-01-12T09:06:55.396Z,17.70
2023-01-12T09:09:23.858Z,18.93
2023-01-12T09:11:52.280Z,18.10
2023-01-12T09:14:21.968Z,22.60
2023-01-12T09:16:51.274Z,18.27
2023-01-12T09:19:19.757Z,19.53
2023-01-12T09:21:48.080Z,19.50
2023-01-12T09:24:16.801Z,19.57
2023-01-12T09:26:47.274Z,18.47
2023-01-12T09:29:16.184Z,19.60
2023-01-12T09:31:46.793Z,19.47
2023-01-12T09:34:15.573Z,18.07
2023-01-12T09:36:44.954Z,19.80
2023-01-12T09:39:32.517Z,17.67
2023-01-12T09:42:18.660Z,19.13
2023-01-12T09:45:07.329Z,18.73
2023-01-12T09:47:40.437Z,17.33
2023-01-12T09:50:12.013Z,17.43
2023-01-12T09:52:45.717Z,15.80
2023-01-12T09:55:18.409Z,16.23
2023-01-12T09:58:11.405Z,15.53
2023-01-12T10:00:39.884Z,14.77
2023-01-12T10:03:17.381Z,16.07
2023-01-12T10:05:49.625Z,17.03
2023-01-12T10:08:27.567Z,16.03
2023-01-12T10:11:11.709Z,16.33
2023-01-12T10:14:07.297Z,16.50
2023-01-12T10:16:48.790Z,16.00
2023-01-12T10:19:26.213Z,18.80
2023-01-12T10:21:55.559Z,15.67
2023-01-12T10:24:25.808Z,15.53
2023-01-12T10:27:01.460Z,16.30
2023-01-12T10:29:31.981Z,17.07
2023-01-12T10:32:00.466Z,14.73
2023-01-12T10:34:48.800Z,14.97
2023-01-12T10:37:17.305Z,14.07
2023-01-12T10:39:46.007Z,12.63
2023-01-12T10:42:40.320Z,13.80
2023-01-12T10:45:17.851Z,12.20
2023-01-12T10:47:47.248Z,12.10
2023-01-12T10:50:28.510Z,10.90
2023-01-12T10:53:02.865Z,11.60
2023-01-12T10:55:33.641Z,12.63
2023-01-12T10:58:02.190Z,14.53
2023-01-12T11:00:31.140Z,14.03
2023-01-12T11:02:59.720Z,15.77
2023-01-12T11:05:34.155Z,14.57
2023-01-12T11:08:03.139Z,15.60
2023-01-12T11:10:35.589Z,14.67
2023-01-12T11:13:23.406Z,15.77
2023-01-12T11:16:02.021Z,17.03
2023-01-12T11:18:38.096Z,17.60
2023-01-12T11:21:10.520Z,17.40
2023-01-12T11:23:43.683Z,18.30
2023-01-12T11:26:19.331Z,15.93
2023-01-12T11:28:52.027Z,16.17
2023-01-12T11:31:25.716Z,16.13
2023-01-12T11:33:59.726Z,16.20
2023-01-12T11:36:32.793Z,18.30
2023-01-12T11:39:06.744Z,18.97
2023-01-12T11:41:38.979Z,17.60
2023-01-12T11:44:16.036Z,17.63
2023-01-12T11:46:47.642Z,17.60
2023-01-12T11:49:19.261Z,16.60
2023-01-12T11:51:52.257Z,17.70
2023-01-12T11:54:21.044Z,16.17
2023-01-12T11:57:10.367Z,15.53
2023-01-12T11:59:48.838Z,16.50
2023-01-12T12:02:33.050Z,16.10
2023-01-12T12:05:11.595Z,17.43
2023-01-12T12:08:00.049Z,15.87
2023-01-12T12:10:35.995Z,15.90
2023-01-12T12:13:26.215Z,17.30
2023-01-12T12:16:07.798Z,16.70
2023-01-12T12:19:00.217Z,17.60
2023-01-12T12:21:58.538Z,16.07
2023-01-12T12:24:48.862Z,16.50
2023-01-12T12:27:27.027Z,16.87
2023-01-12T12:30:22.160Z,17.10
2023-01-12T12:32:56.731Z,17.57
2023-01-12T12:35:40.636Z,15.97
2023-01-12T12:38:20.071Z,16.53
2023-01-12T12:41:24.039Z,17.20
2023-01-12T12:44:20.868Z,15.67
2023-01-12T12:46:56.212Z,17.10
2023-01-12T12:49:30.495Z,17.63
2023-01-12T12:52:00.222Z,17.93
2023-01-12T12:54:30.597Z,17.83
2023-01-12T12:57:00.491Z,22.13
2023-01-12T12:59:54.691Z,20.07
2023-01-12T13:02:40.442Z,19.13
2023-01-12T13:05:10.630Z,21.47
2023-01-12T13:07:45.494Z,21.20
2023-01-12T13:10:31.640Z,19.47
2023-01-12T13:13:04.650Z,23.60
2023-01-12T13:15:37.457Z,23.50
2023-01-12T13:18:07.378Z,22.10
2023-01-12T13:20:52.570Z,22.10
2023-01-12T13:23:47.021Z,22.50
2023-01-12T13:26:40.664Z,22.83
2023-01-12T13:29:40.619Z,20.90
2023-01-12T13:32:51.495Z,20.33
2023-01-12T13:35:55.819Z,18.10
2023-01-12T13:38:59.780Z,18.13
2023-01-12T13:41:49.079Z,18.77
2023-01-12T13:44:25.576Z,18.03
2023-01-12T13:47:04.370Z,17.70
2023-01-12T13:49:35.147Z,16.67
2023-01-12T13:52:06.059Z,17.83
2023-01-12T13:54:35.087Z,18.37
2023-01-12T13:57:10.764Z,19.33
2023-01-12T13:59:39.233Z,18.87
2023-01-12T14:02:19.051Z,18.77
2023-01-12T14:05:12.643Z,18.43
2023-01-12T14:07:53.450Z,17.50
2023-01-12T14:10:37.013Z,18.43
2023-01-12T14:13:19.108Z,17.13
2023-01-12T14:16:05.270Z,16.30
2023-01-12T14:18:45.300Z,16.60
2023-01-12T14:21:25.502Z,18.93
2023-01-12T14:23:54.512Z,19.40
2023-01-12T14:26:27.218Z,17.80
2023-01-12T14:28:55.651Z,18.97
2023-01-12T14:31:28.388Z,23.60
2023-01-12T14:34:00.883Z,24.30
2023-01-12T14:36:32.433Z,25.33
2023-01-12T14:39:01.228Z,24.13
2023-01-12T14:41:50.776Z,23.90
2023-01-12T14:44:41.622Z,24.17
2023-01-12T14:47:10.755Z,23.27
2023-01-12T14:49:40.583Z,25.23
2023-01-12T14:52:26.156Z,24.00
2023-01-12T14:54:54.665Z,26.50
2023-01-12T14:57:27.336Z,25.47
2023-01-12T14:59:56.342Z,24.43
2023-01-12T15:02:33.047Z,25.60
2023-01-12T15:05:06.776Z,25.27
2023-01-12T15:07:37.375Z,25.30
2023-01-12T15:10:27.791Z,42.50
2023-01-12T15:12:57.997Z,79.90
2023-01-12T15:15:27.962Z,85.60
2023-01-12T15:18:14.456Z,66.03
2023-01-12T15:21:03.400Z,87.60
2023-01-12T15:23:52.336Z,57.90
2023-01-12T15:26:21.231Z,46.37
2023-01-12T15:28:49.827Z,44.73
2023-01-12T15:31:28.762Z,53.47
2023-01-12T15:33:58.323Z,53.80
2023-01-12T15:36:28.191Z,41.87
2023-01-12T15:38:56.442Z,40.97
2023-01-12T15:41:41.133Z,35.03
2023-01-12T15:44:13.904Z,34.53
2023-01-12T15:46:42.661Z,32.93
2023-01-12T15:49:13.341Z,28.83
2023-01-12T15:51:45.206Z,27.40
2023-01-12T15:54:14.668Z,25.30
2023-01-12T15:56:43.030Z,24.03
2023-01-12T15:59:11.369Z,23.87
2023-01-12T16:01:43.461Z,23.27
2023-01-12T16:04:41.573Z,22.17
2023-01-12T16:07:06.610Z,20.07
2023-01-12T16:09:34.962Z,25.10
2023-01-12T16:12:03.340Z,26.00
2023-01-12T16:14:31.863Z,25.43
2023-01-12T16:17:00.235Z,25.27
2023-01-12T16:19:28.670Z,25.10
2023-01-12T16:21:57.008Z,26.83
2023-01-12T16:24:30.890Z,27.93
2023-01-12T16:26:59.307Z,31.83
2023-01-12T16:29:27.688Z,33.87
2023-01-12T16:31:56.145Z,29.43
2023-01-12T16:34:24.528Z,28.53
2023-01-12T16:36:52.900Z,28.53
2023-01-12T16:39:21.128Z,31.27
2023-01-12T16:41:50.769Z,33.27
2023-01-12T16:44:19.149Z,33.03
2023-01-12T16:46:50.239Z,35.17
2023-01-12T16:49:18.670Z,28.10
2023-01-12T16:51:46.969Z,32.17
2023-01-12T16:54:15.343Z,33.03
2023-01-12T16:56:43.709Z,32.90
2023-01-12T16:59:13.418Z,31.00
2023-01-12T17:01:41.981Z,33.50
2023-01-12T17:04:10.814Z,35.00
2023-01-12T17:06:40.600Z,31.57
2023-01-12T17:09:09.290Z,30.77
2023-01-12T17:11:39.647Z,31.07
2023-01-12T17:17:07.457Z,31.53
2023-01-12T17:19:37.213Z,31.23
2023-01-12T17:22:07.804Z,30.77
2023-01-12T17:24:39.655Z,34.07
2023-01-12T17:27:09.097Z,31.17
2023-01-12T17:29:38.149Z,34.67
2023-01-12T17:32:08.285Z,32.40
2023-01-12T17:34:38.705Z,28.73
2023-01-12T17:37:08.950Z,36.90
2023-01-12T17:39:39.856Z,33.63
2023-01-12T17:42:25.972Z,29.33
2023-01-12T17:44:54.447Z,31.63
2023-01-12T17:47:24.772Z,55.97
2023-01-12T17:49:54.696Z,45.20
2023-01-12T17:52:23.148Z,37.87
2023-01-12T17:54:51.540Z,37.07
2023-01-12T17:57:20.045Z,30.63
2023-01-12T17:59:50.074Z,31.73
2023-01-12T18:02:18.682Z,37.90
2023-01-12T18:04:48.674Z,34.37
2023-01-12T18:07:17.297Z,39.33
2023-01-12T18:09:45.654Z,37.63
2023-01-12T18:12:16.448Z,45.70
2023-01-12T18:14:44.923Z,44.77
2023-01-12T18:17:13.378Z,44.87
2023-01-12T18:19:42.606Z,43.27
2023-01-12T18:22:12.436Z,44.20
2023-01-12T18:24:41.016Z,51.37
2023-01-12T18:27:09.366Z,38.47
2023-01-12T18:29:38.156Z,43.53
2023-01-12T18:32:07.606Z,35.43
2023-01-12T18:34:36.689Z,38.67
2023-01-12T18:37:05.280Z,33.30
2023-01-12T18:39:35.038Z,31.80
2023-01-12T18:42:21.076Z,34.43
2023-01-12T18:44:50.126Z,38.20
2023-01-12T18:47:36.266Z,30.47
2023-01-12T18:50:25.625Z,32.47
2023-01-12T18:53:11.619Z,31.27
2023-01-12T18:55:42.836Z,37.43
2023-01-12T18:58:11.220Z,36.53
2023-01-12T19:00:39.662Z,35.53
2023-01-12T19:03:08.082Z,32.60
2023-01-12T19:05:44.046Z,32.57
2023-01-12T19:08:29.953Z,29.27
2023-01-12T19:11:08.436Z,29.00
2023-01-12T19:13:54.079Z,36.87
2023-01-12T19:16:39.837Z,36.77
2023-01-12T19:19:08.550Z,37.80
2023-01-12T19:21:54.230Z,25.57
2023-01-12T19:24:40.498Z,26.03
2023-01-12T19:27:30.750Z,27.77
2023-01-12T19:29:59.287Z,26.77
2023-01-12T19:32:27.759Z,30.17
2023-01-12T19:35:02.281Z,27.03
2023-01-12T19:37:38.474Z,31.13
2023-01-12T19:40:13.688Z,34.00
2023-01-12T19:43:00.828Z,25.97
2023-01-12T19:45:29.537Z,32.47
2023-01-12T19:47:57.898Z,29.00
2023-01-12T19:50:26.213Z,28.37
2023-01-12T19:52:54.537Z,28.63
2023-01-12T19:55:22.897Z,30.67
2023-01-12T19:57:54.484Z,29.63
2023-01-12T20:00:23.215Z,31.23
2023-01-12T20:02:51.769Z,28.30
2023-01-12T20:05:23.122Z,30.63
2023-01-12T20:07:52.926Z,28.07
2023-01-12T20:10:22.227Z,29.77
2023-01-12T20:12:52.614Z,26.43
2023-01-12T20:15:21.911Z,26.37
2023-01-12T20:17:51.049Z,28.80
2023-01-12T20:20:20.064Z,27.70
2023-01-12T20:22:50.620Z,27.77
2023-01-12T20:25:19.315Z,33.30
2023-01-12T20:27:49.265Z,28.50
2023-01-12T20:30:36.590Z,30.20
2023-01-12T20:33:08.331Z,32.67
2023-01-12T20:35:39.174Z,36.00
2023-01-12T20:38:13.447Z,42.20
2023-01-12T20:40:42.085Z,32.33
2023-01-12T20:43:10.568Z,29.60
2023-01-12T20:45:41.495Z,31.03
2023-01-12T20:48:13.190Z,32.37
2023-01-12T20:50:44.147Z,46.03
2023-01-12T20:53:13.405Z,32.43
2023-01-12T20:55:45.730Z,33.00
2023-01-12T20:58:14.301Z,30.60
2023-01-12T21:00:44.772Z,33.80
2023-01-12T21:03:13.371Z,27.60
2023-01-12T21:05:43.539Z,25.87
2023-01-12T21:08:12.770Z,29.00
2023-01-12T21:10:50.396Z,24.77
2023-01-12T21:13:19.215Z,24.33
2023-01-12T21:15:49.009Z,28.10
2023-01-12T21:18:17.380Z,25.47
2023-01-12T21:20:46.319Z,31.40
2023-01-12T21:23:14.686Z,25.63
2023-01-12T21:25:43.916Z,27.83
2023-01-12T21:28:13.034Z,24.50
2023-01-12T21:30:41.716Z,26.23
2023-01-12T21:33:11.660Z,24.40
2023-01-12T21:35:39.958Z,27.87
2023-01-12T21:38:08.368Z,26.27
2023-01-12T21:40:38.384Z,30.47
2023-01-12T21:43:09.464Z,26.77
2023-01-12T21:45:38.155Z,24.60
2023-01-12T21:48:07.167Z,27.93
2023-01-12T21:50:37.664Z,23.80
2023-01-12T21:53:07.428Z,22.70
2023-01-12T21:55:36.478Z,24.37
2023-01-12T21:58:04.804Z,28.47
2023-01-12T22:00:33.489Z,25.03
2023-01-12T22:03:01.936Z,26.77
2023-01-12T22:05:30.510Z,26.70
2023-01-12T22:08:00.149Z,24.13
2023-01-12T22:10:31.513Z,29.83
2023-01-12T22:13:02.903Z,28.70
2023-01-12T22:15:31.857Z,23.87
2023-01-12T22:18:01.017Z,26.50
2023-01-12T22:20:29.442Z,23.53
2023-01-12T22:22:59.559Z,24.53
2023-01-12T22:25:28.497Z,25.27
2023-01-12T22:27:58.299Z,26.63
2023-01-12T22:30:27.965Z,31.73
2023-01-12T22:32:57.178Z,33.47
2023-01-12T22:35:26.178Z,28.00
2023-01-12T22:37:54.803Z,25.00
2023-01-12T22:40:24.457Z,25.70
2023-01-12T22:43:10.409Z,25.97
2023-01-12T22:45:38.935Z,23.87
2023-01-12T22:48:07.625Z,22.10
2023-01-12T22:50:35.918Z,23.73
2023-01-12T22:53:04.235Z,20.87
2023-01-12T22:55:33.992Z,19.97
2023-01-12T22:58:02.278Z,21.40
2023-01-12T23:00:30.608Z,19.23
2023-01-12T23:03:02.330Z,18.07
2023-01-12T23:05:35.726Z,19.43
2023-01-12T23:08:05.287Z,21.13
2023-01-12T23:10:35.404Z,20.50
2023-01-12T23:13:16.150Z,24.13
2023-01-12T23:15:47.383Z,23.57
2023-01-12T23:18:17.922Z,20.80
2023-01-12T23:20:46.527Z,20.60
2023-01-12T23:23:17.690Z,19.40
2023-01-12T23:25:48.682Z,19.10
2023-01-12T23:28:17.187Z,19.83
2023-01-12T23:30:46.077Z,19.80
2023-01-12T23:33:14.419Z,20.90
2023-01-12T23:35:44.183Z,20.20
2023-01-12T23:38:16.344Z,21.17
2023-01-12T23:40:44.828Z,18.37
2023-01-12T23:43:14.488Z,20.40
2023-01-12T23:45:42.854Z,16.87
2023-01-12T23:48:11.175Z,17.67
2023-01-12T23:50:39.680Z,18.20
2023-01-12T23:53:08.033Z,18.60
2023-01-12T23:55:40.191Z,17.43
2023-01-12T23:58:08.619Z,17.93
